^^
Station Historical Data
Daily Summary for November 27, 2017 Units:  Both    English   Metric
« Previous Day
Next Day »
Daily Weekly Monthly Yearly Custom
  High: Low: Average:
Temperature: TemperatureF °F /  -17.8 °C 60.8 °F /  16 °C 79.7 °F /  26.5 °C
Dew Point: DewpointF °F /  -17.8 °C 13.6 °F /  -10.2 °C 23.7 °F /  -4.6 °C
Humidity: Humidity% 5% 14%
Wind Speed: WindSpeedMPHmph /  0km/h - 1.9mph /  3.1km/h
Wind Gust: WindSpeedGustMPHmph /  0km/h - -
Wind- - South
Pressure: PressureIn in /  0 hPa 29.58 in /  1001.6 hPa -
Precipitation: 0.00 in /  0 mm    
Historical Graphs
 
 
Tabular Data for November 27, 2017
Time Temperature Dew Point Pressure Wind Wind Speed Wind Gust Humidity Rainfall Rate (Hourly) solar Conditions
TemperatureF °F /  -17.8 °C DewpointF °F /  -17.8 °C PressureInin /  0hPa Calm     Humidity% HourlyPrecipInin /  0mm SolarRadiationWatts/m^2 W/m2 Conditions
00:02 72.5 °F /  22.5 °C 32.5 °F /  0.3 °C 29.74in /  1007hPa Calm   3.0mph /  4.8km/h 23% 0.00in /  0mm 0.0 W/m2
00:07 72.3 °F /  22.4 °C 32.4 °F /  0.2 °C 29.74in /  1007hPa Calm   4.0mph /  6.4km/h 23% 0.00in /  0mm 0.0 W/m2
00:12 72.3 °F /  22.4 °C 32.4 °F /  0.2 °C 29.74in /  1007hPa Calm     23% 0.00in /  0mm 0.0 W/m2
00:17 72.1 °F /  22.3 °C 32.4 °F /  0.2 °C 29.74in /  1007hPa Calm   1.0mph /  1.6km/h 23% 0.00in /  0mm 0.0 W/m2
00:22 72.0 °F /  22.2 °C 33.3 °F /  0.7 °C 29.74in /  1007hPa Calm   1.0mph /  1.6km/h 24% 0.00in /  0mm 0.0 W/m2
00:28 71.4 °F /  21.9 °C 32.7 °F /  0.4 °C 29.73in /  1006.7hPa NNE 0.9mph /  1.4km/h 1.0mph /  1.6km/h 24% 0.00in /  0mm 0.0 W/m2
00:33 71.2 °F /  21.8 °C 32.5 °F /  0.3 °C 29.73in /  1006.7hPa Calm     24% 0.00in /  0mm 0.0 W/m2
00:38 71.1 °F /  21.7 °C 32.4 °F /  0.2 °C 29.73in /  1006.7hPa Calm     24% 0.00in /  0mm 0.0 W/m2
00:43 70.7 °F /  21.5 °C 33.1 °F /  0.6 °C 29.73in /  1006.7hPa North 2.0mph /  3.2km/h 3.0mph /  4.8km/h 25% 0.00in /  0mm 0.0 W/m2
00:48 70.5 °F /  21.4 °C 33.1 °F /  0.6 °C 29.73in /  1006.7hPa North 2.0mph /  3.2km/h 3.0mph /  4.8km/h 25% 0.00in /  0mm 0.0 W/m2
00:53 70.3 °F /  21.3 °C 32.9 °F /  0.5 °C 29.73in /  1006.7hPa Calm   1.0mph /  1.6km/h 25% 0.00in /  0mm 0.0 W/m2
00:58 70.2 °F /  21.2 °C 31.6 °F /  -0.2 °C 29.73in /  1006.7hPa Calm     24% 0.00in /  0mm 0.0 W/m2
01:03 70.0 °F /  21.1 °C 31.5 °F /  -0.3 °C 29.73in /  1006.7hPa Calm   1.0mph /  1.6km/h 24% 0.00in /  0mm 0.0 W/m2
01:08 70.0 °F /  21.1 °C 31.5 °F /  -0.3 °C 29.73in /  1006.7hPa Calm   1.0mph /  1.6km/h 24% 0.00in /  0mm 0.0 W/m2
01:13 69.8 °F /  21 °C 31.5 °F /  -0.3 °C 29.73in /  1006.7hPa Calm   1.0mph /  1.6km/h 24% 0.00in /  0mm 0.0 W/m2
01:19 69.6 °F /  20.9 °C 31.3 °F /  -0.4 °C 29.73in /  1006.7hPa Calm     24% 0.00in /  0mm 0.0 W/m2
01:24 69.6 °F /  20.9 °C 30.2 °F /  -1 °C 29.72in /  1006.3hPa Calm   2.0mph /  3.2km/h 23% 0.00in /  0mm 0.0 W/m2
01:29 69.6 °F /  20.9 °C 30.2 °F /  -1 °C 29.72in /  1006.3hPa SW 2.9mph /  4.7km/h 4.0mph /  6.4km/h 23% 0.00in /  0mm 0.0 W/m2
01:34 69.8 °F /  21 °C 30.4 °F /  -0.9 °C 29.72in /  1006.3hPa Calm   3.0mph /  4.8km/h 23% 0.00in /  0mm 0.0 W/m2
01:39 70.0 °F /  21.1 °C 30.6 °F /  -0.8 °C 29.72in /  1006.3hPa NW 0.9mph /  1.4km/h 1.0mph /  1.6km/h 23% 0.00in /  0mm 0.0 W/m2
01:44 70.0 °F /  21.1 °C 29.3 °F /  -1.5 °C 29.72in /  1006.3hPa Calm   2.0mph /  3.2km/h 22% 0.00in /  0mm 0.0 W/m2
01:49 70.2 °F /  21.2 °C 29.5 °F /  -1.4 °C 29.72in /  1006.3hPa Calm   1.0mph /  1.6km/h 22% 0.00in /  0mm 0.0 W/m2
01:54 70.2 °F /  21.2 °C 29.5 °F /  -1.4 °C 29.72in /  1006.3hPa Calm     22% 0.00in /  0mm 0.0 W/m2
01:59 70.2 °F /  21.2 °C 29.5 °F /  -1.4 °C 29.72in /  1006.3hPa WNW 2.0mph /  3.2km/h 2.0mph /  3.2km/h 22% 0.00in /  0mm 0.0 W/m2
02:05 70.0 °F /  21.1 °C 30.6 °F /  -0.8 °C 29.72in /  1006.3hPa Calm     23% 0.00in /  0mm 0.0 W/m2
02:10 69.6 °F /  20.9 °C 30.2 °F /  -1 °C 29.72in /  1006.3hPa Calm   2.0mph /  3.2km/h 23% 0.00in /  0mm 0.0 W/m2
02:16 69.1 °F /  20.6 °C 29.7 °F /  -1.3 °C 29.72in /  1006.3hPa Calm   1.0mph /  1.6km/h 23% 0.00in /  0mm 0.0 W/m2
02:21 69.3 °F /  20.7 °C 28.8 °F /  -1.8 °C 29.71in /  1006hPa ESE 2.0mph /  3.2km/h 7.0mph /  11.3km/h 22% 0.00in /  0mm 0.0 W/m2
02:26 69.4 °F /  20.8 °C 28.9 °F /  -1.7 °C 29.71in /  1006hPa Calm   2.0mph /  3.2km/h 22% 0.00in /  0mm 0.0 W/m2
02:31 69.4 °F /  20.8 °C 28.9 °F /  -1.7 °C 29.71in /  1006hPa SSE 2.0mph /  3.2km/h 3.0mph /  4.8km/h 22% 0.00in /  0mm 0.0 W/m2
02:36 69.6 °F /  20.9 °C 27.9 °F /  -2.3 °C 29.72in /  1006.3hPa SSE 4.0mph /  6.4km/h 6.0mph /  9.7km/h 21% 0.00in /  0mm 0.0 W/m2
02:41 70.0 °F /  21.1 °C 28.2 °F /  -2.1 °C 29.71in /  1006hPa South 0.9mph /  1.4km/h 2.0mph /  3.2km/h 21% 0.00in /  0mm 0.0 W/m2
02:46 70.2 °F /  21.2 °C 27.1 °F /  -2.7 °C 29.71in /  1006hPa Calm   7.0mph /  11.3km/h 20% 0.00in /  0mm 0.0 W/m2
02:51 70.3 °F /  21.3 °C 27.3 °F /  -2.6 °C 29.71in /  1006hPa SSW 2.9mph /  4.7km/h 3.0mph /  4.8km/h 20% 0.00in /  0mm 0.0 W/m2
02:57 70.5 °F /  21.4 °C 26.2 °F /  -3.2 °C 29.71in /  1006hPa South 2.9mph /  4.7km/h 7.0mph /  11.3km/h 19% 0.00in /  0mm 0.0 W/m2
03:02 70.5 °F /  21.4 °C 27.5 °F /  -2.5 °C 29.71in /  1006hPa ENE 0.9mph /  1.4km/h 3.0mph /  4.8km/h 20% 0.00in /  0mm 0.0 W/m2
03:07 70.5 °F /  21.4 °C 26.2 °F /  -3.2 °C 29.71in /  1006hPa Calm   3.0mph /  4.8km/h 19% 0.00in /  0mm 0.0 W/m2
03:12 70.3 °F /  21.3 °C 26.1 °F /  -3.3 °C 29.71in /  1006hPa Calm   1.0mph /  1.6km/h 19% 0.00in /  0mm 0.0 W/m2
03:17 70.2 °F /  21.2 °C 26.1 °F /  -3.3 °C 29.71in /  1006hPa SE 0.9mph /  1.4km/h 5.0mph /  8km/h 19% 0.00in /  0mm 0.0 W/m2
03:22 70.0 °F /  21.1 °C 25.9 °F /  -3.4 °C 29.71in /  1006hPa Calm   3.0mph /  4.8km/h 19% 0.00in /  0mm 0.0 W/m2
03:27 69.6 °F /  20.9 °C 25.5 °F /  -3.6 °C 29.70in /  1005.6hPa Calm   2.0mph /  3.2km/h 19% 0.00in /  0mm 0.0 W/m2
03:32 69.4 °F /  20.8 °C 25.3 °F /  -3.7 °C 29.70in /  1005.6hPa Calm   1.0mph /  1.6km/h 19% 0.00in /  0mm 0.0 W/m2
03:38 69.1 °F /  20.6 °C 25.2 °F /  -3.8 °C 29.70in /  1005.6hPa SSE 0.9mph /  1.4km/h 2.0mph /  3.2km/h 19% 0.00in /  0mm 0.0 W/m2
03:43 68.7 °F /  20.4 °C 24.8 °F /  -4 °C 29.70in /  1005.6hPa Calm   1.0mph /  1.6km/h 19% 0.00in /  0mm 0.0 W/m2
03:48 68.5 °F /  20.3 °C 24.6 °F /  -4.1 °C 29.71in /  1006hPa Calm   1.0mph /  1.6km/h 19% 0.00in /  0mm 0.0 W/m2
03:53 68.2 °F /  20.1 °C 25.5 °F /  -3.6 °C 29.71in /  1006hPa Calm   1.0mph /  1.6km/h 20% 0.00in /  0mm 0.0 W/m2
03:58 67.8 °F /  19.9 °C 25.3 °F /  -3.7 °C 29.71in /  1006hPa Calm     20% 0.00in /  0mm 0.0 W/m2
04:03 67.6 °F /  19.8 °C 25.2 °F /  -3.8 °C 29.71in /  1006hPa Calm   1.0mph /  1.6km/h 20% 0.00in /  0mm 0.0 W/m2
04:08 67.3 °F /  19.6 °C 26.1 °F /  -3.3 °C 29.71in /  1006hPa Calm   2.0mph /  3.2km/h 21% 0.00in /  0mm 0.0 W/m2
04:13 66.7 °F /  19.3 °C 25.5 °F /  -3.6 °C 29.71in /  1006hPa Calm     21% 0.00in /  0mm 0.0 W/m2
04:18 66.4 °F /  19.1 °C 25.3 °F /  -3.7 °C 29.71in /  1006hPa Calm     21% 0.00in /  0mm 0.0 W/m2
04:24 65.8 °F /  18.8 °C 24.8 °F /  -4 °C 29.71in /  1006hPa Calm     21% 0.00in /  0mm 0.0 W/m2
04:29 65.5 °F /  18.6 °C 25.7 °F /  -3.5 °C 29.70in /  1005.6hPa Calm     22% 0.00in /  0mm 0.0 W/m2
04:34 65.1 °F /  18.4 °C 25.3 °F /  -3.7 °C 29.70in /  1005.6hPa Calm     22% 0.00in /  0mm 0.0 W/m2
04:39 64.8 °F /  18.2 °C 25.0 °F /  -3.9 °C 29.70in /  1005.6hPa Calm     22% 0.00in /  0mm 0.0 W/m2
04:44 64.4 °F /  18 °C 24.8 °F /  -4 °C 29.70in /  1005.6hPa Calm     22% 0.00in /  0mm 0.0 W/m2
04:50 64.0 °F /  17.8 °C 25.5 °F /  -3.6 °C 29.70in /  1005.6hPa Calm     23% 0.00in /  0mm 0.0 W/m2
04:55 63.7 °F /  17.6 °C 24.1 °F /  -4.4 °C 29.70in /  1005.6hPa Calm   1.0mph /  1.6km/h 22% 0.00in /  0mm 0.0 W/m2
05:00 63.3 °F /  17.4 °C 23.9 °F /  -4.5 °C 29.70in /  1005.6hPa Calm   1.0mph /  1.6km/h 22% 0.00in /  0mm 0.0 W/m2
05:05 63.1 °F /  17.3 °C 24.8 °F /  -4 °C 29.70in /  1005.6hPa Calm     23% 0.00in /  0mm 0.0 W/m2
05:12 63.0 °F /  17.2 °C 23.5 °F /  -4.7 °C 29.70in /  1005.6hPa Calm     22% 0.00in /  0mm 0.0 W/m2
05:17 62.8 °F /  17.1 °C 23.4 °F /  -4.8 °C 29.70in /  1005.6hPa Calm     22% 0.00in /  0mm 0.0 W/m2
05:22 62.8 °F /  17.1 °C 22.3 °F /  -5.4 °C 29.70in /  1005.6hPa Calm   1.0mph /  1.6km/h 21% 0.00in /  0mm 0.0 W/m2
05:26 62.8 °F /  17.1 °C 22.3 °F /  -5.4 °C 29.70in /  1005.6hPa Calm   1.0mph /  1.6km/h 21% 0.00in /  0mm 0.0 W/m2
05:31 62.8 °F /  17.1 °C 23.4 °F /  -4.8 °C 29.70in /  1005.6hPa Calm     22% 0.00in /  0mm 0.0 W/m2
05:36 62.6 °F /  17 °C 23.2 °F /  -4.9 °C 29.70in /  1005.6hPa Calm     22% 0.00in /  0mm 0.0 W/m2
05:41 62.4 °F /  16.9 °C 23.0 °F /  -5 °C 29.70in /  1005.6hPa Calm     22% 0.00in /  0mm 0.0 W/m2
05:47 62.4 °F /  16.9 °C 24.1 °F /  -4.4 °C 29.70in /  1005.6hPa Calm     23% 0.00in /  0mm 0.0 W/m2
05:52 62.2 °F /  16.8 °C 23.0 °F /  -5 °C 29.70in /  1005.6hPa Calm     22% 0.00in /  0mm 0.0 W/m2
05:57 62.1 °F /  16.7 °C 21.7 °F /  -5.7 °C 29.70in /  1005.6hPa Calm     21% 0.00in /  0mm 0.0 W/m2
06:03 61.9 °F /  16.6 °C 21.6 °F /  -5.8 °C 29.70in /  1005.6hPa Calm     21% 0.00in /  0mm 5.0 W/m2
06:08 61.5 °F /  16.4 °C 22.3 °F /  -5.4 °C 29.70in /  1005.6hPa Calm     22% 0.00in /  0mm 7.0 W/m2
06:13 61.3 °F /  16.3 °C 23.2 °F /  -4.9 °C 29.71in /  1006hPa Calm     23% 0.00in /  0mm 9.0 W/m2
06:18 61.2 °F /  16.2 °C 23.0 °F /  -5 °C 29.71in /  1006hPa Calm     23% 0.00in /  0mm 11.0 W/m2
06:23 61.0 °F /  16.1 °C 23.9 °F /  -4.5 °C 29.71in /  1006hPa Calm     24% 0.00in /  0mm 12.0 W/m2
06:33 60.8 °F /  16 °C 23.7 °F /  -4.6 °C 29.72in /  1006.3hPa Calm   1.0mph /  1.6km/h 24% 0.00in /  0mm 16.0 W/m2
06:38 61.0 °F /  16.1 °C 22.8 °F /  -5.1 °C 29.72in /  1006.3hPa Calm     23% 0.00in /  0mm 18.0 W/m2
06:44 61.2 °F /  16.2 °C 23.0 °F /  -5 °C 29.72in /  1006.3hPa Calm   2.0mph /  3.2km/h 23% 0.00in /  0mm 19.0 W/m2
06:49 61.7 °F /  16.5 °C 22.5 °F /  -5.3 °C 29.72in /  1006.3hPa Calm   2.0mph /  3.2km/h 22% 0.00in /  0mm 21.0 W/m2
06:54 62.2 °F /  16.8 °C 23.9 °F /  -4.5 °C 29.72in /  1006.3hPa Calm   1.0mph /  1.6km/h 23% 0.00in /  0mm 21.0 W/m2
07:00 63.1 °F /  17.3 °C 21.4 °F /  -5.9 °C 29.72in /  1006.3hPa ESE 4.0mph /  6.4km/h 5.0mph /  8km/h 20% 0.00in /  0mm 23.0 W/m2
07:05 63.9 °F /  17.7 °C 20.8 °F /  -6.2 °C 29.72in /  1006.3hPa SE 0.9mph /  1.4km/h 3.0mph /  4.8km/h 19% 0.00in /  0mm 25.0 W/m2
07:10 65.1 °F /  18.4 °C 19.2 °F /  -7.1 °C 29.73in /  1006.7hPa ENE 0.9mph /  1.4km/h 4.0mph /  6.4km/h 17% 0.00in /  0mm 26.0 W/m2
07:15 66.4 °F /  19.1 °C 18.9 °F /  -7.3 °C 29.72in /  1006.3hPa Calm   2.0mph /  3.2km/h 16% 0.00in /  0mm 26.0 W/m2
07:20 67.6 °F /  19.8 °C 18.3 °F /  -7.6 °C 29.72in /  1006.3hPa SE 2.0mph /  3.2km/h 4.0mph /  6.4km/h 15% 0.00in /  0mm 37.0 W/m2
07:26 68.7 °F /  20.4 °C 19.2 °F /  -7.1 °C 29.72in /  1006.3hPa Calm   4.0mph /  6.4km/h 15% 0.00in /  0mm 299.0 W/m2
07:31 70.0 °F /  21.1 °C 18.5 °F /  -7.5 °C 29.72in /  1006.3hPa Calm   1.0mph /  1.6km/h 14% 0.00in /  0mm 330.0 W/m2
07:36 71.1 °F /  21.7 °C 17.8 °F /  -7.9 °C 29.73in /  1006.7hPa ESE 2.9mph /  4.7km/h 9.0mph /  14.5km/h 13% 0.00in /  0mm 350.0 W/m2
07:41 72.5 °F /  22.5 °C 15.1 °F /  -9.4 °C 29.73in /  1006.7hPa ENE 2.9mph /  4.7km/h 7.0mph /  11.3km/h 11% 0.00in /  0mm 369.0 W/m2
07:46 73.8 °F /  23.2 °C 18.0 °F /  -7.8 °C 29.73in /  1006.7hPa NE 2.0mph /  3.2km/h 6.0mph /  9.7km/h 12% 0.00in /  0mm 390.0 W/m2
07:51 74.8 °F /  23.8 °C 16.9 °F /  -8.4 °C 29.73in /  1006.7hPa SE 4.9mph /  7.9km/h 7.0mph /  11.3km/h 11% 0.00in /  0mm 410.0 W/m2
07:57 75.6 °F /  24.2 °C 15.1 °F /  -9.4 °C 29.72in /  1006.3hPa East 6.0mph /  9.7km/h 8.0mph /  12.9km/h 10% 0.00in /  0mm 434.0 W/m2
08:02 76.3 °F /  24.6 °C 15.6 °F /  -9.1 °C 29.73in /  1006.7hPa ESE 4.0mph /  6.4km/h 10.0mph /  16.1km/h 10% 0.00in /  0mm 455.0 W/m2
08:07 76.8 °F /  24.9 °C 16.2 °F /  -8.8 °C 29.72in /  1006.3hPa ESE 4.9mph /  7.9km/h 8.0mph /  12.9km/h 10% 0.00in /  0mm 476.0 W/m2
08:12 77.4 °F /  25.2 °C 16.5 °F /  -8.6 °C 29.73in /  1006.7hPa SSE 0.9mph /  1.4km/h 8.0mph /  12.9km/h 10% 0.00in /  0mm 487.0 W/m2
08:17 77.7 °F /  25.4 °C 14.4 °F /  -9.8 °C 29.72in /  1006.3hPa SE 2.9mph /  4.7km/h 12.0mph /  19.3km/h 9% 0.00in /  0mm 515.0 W/m2
08:23 78.1 °F /  25.6 °C 14.7 °F /  -9.6 °C 29.72in /  1006.3hPa NW 0.9mph /  1.4km/h 7.0mph /  11.3km/h 9% 0.00in /  0mm 534.0 W/m2
08:28 78.6 °F /  25.9 °C 15.1 °F /  -9.4 °C 29.72in /  1006.3hPa East 2.9mph /  4.7km/h 6.0mph /  9.7km/h 9% 0.00in /  0mm 554.0 W/m2
08:33 79.2 °F /  26.2 °C 15.4 °F /  -9.2 °C 29.72in /  1006.3hPa NE 6.0mph /  9.7km/h 13.0mph /  20.9km/h 9% 0.00in /  0mm 575.0 W/m2
08:38 79.5 °F /  26.4 °C 15.8 °F /  -9 °C 29.72in /  1006.3hPa NE 6.9mph /  11.1km/h 9.0mph /  14.5km/h 9% 0.00in /  0mm 592.0 W/m2
08:43 79.9 °F /  26.6 °C 16.0 °F /  -8.9 °C 29.72in /  1006.3hPa NNE 2.0mph /  3.2km/h 10.0mph /  16.1km/h 9% 0.00in /  0mm 613.0 W/m2
08:48 80.2 °F /  26.8 °C 16.3 °F /  -8.7 °C 29.72in /  1006.3hPa North 2.0mph /  3.2km/h 10.0mph /  16.1km/h 9% 0.00in /  0mm 633.0 W/m2
08:52 80.4 °F /  26.9 °C 13.6 °F /  -10.2 °C 29.72in /  1006.3hPa NE 6.0mph /  9.7km/h 15.0mph /  24.1km/h 8% 0.00in /  0mm 647.0 W/m2
08:57 80.8 °F /  27.1 °C 14.0 °F /  -10 °C 29.72in /  1006.3hPa East 4.0mph /  6.4km/h 15.0mph /  24.1km/h 8% 0.00in /  0mm 664.0 W/m2
09:02 80.4 °F /  26.9 °C 16.3 °F /  -8.7 °C 29.72in /  1006.3hPa South 2.0mph /  3.2km/h 10.0mph /  16.1km/h 9% 0.00in /  0mm 684.0 W/m2
09:07 80.4 °F /  26.9 °C 13.6 °F /  -10.2 °C 29.72in /  1006.3hPa NE 2.9mph /  4.7km/h 14.0mph /  22.5km/h 8% 0.00in /  0mm 701.0 W/m2
09:13 80.2 °F /  26.8 °C 16.3 °F /  -8.7 °C 29.72in /  1006.3hPa NE 0.9mph /  1.4km/h 10.0mph /  16.1km/h 9% 0.00in /  0mm 700.0 W/m2
09:18 80.4 °F /  26.9 °C 16.3 °F /  -8.7 °C 29.72in /  1006.3hPa East 4.0mph /  6.4km/h 14.0mph /  22.5km/h 9% 0.00in /  0mm 735.0 W/m2
09:23 81.0 °F /  27.2 °C 14.2 °F /  -9.9 °C 29.72in /  1006.3hPa NE 4.9mph /  7.9km/h 13.0mph /  20.9km/h 8% 0.00in /  0mm 752.0 W/m2
09:28 81.1 °F /  27.3 °C 14.2 °F /  -9.9 °C 29.72in /  1006.3hPa NE 4.0mph /  6.4km/h 17.0mph /  27.4km/h 8% 0.00in /  0mm 770.0 W/m2
09:33 81.7 °F /  27.6 °C 14.7 °F /  -9.6 °C 29.72in /  1006.3hPa NNE 4.9mph /  7.9km/h 12.0mph /  19.3km/h 8% 0.00in /  0mm 784.0 W/m2
09:38 81.9 °F /  27.7 °C 17.4 °F /  -8.1 °C 29.72in /  1006.3hPa North 2.0mph /  3.2km/h 11.0mph /  17.7km/h 9% 0.00in /  0mm 800.0 W/m2
09:43 81.9 °F /  27.7 °C 19.9 °F /  -6.7 °C 29.72in /  1006.3hPa NE 2.9mph /  4.7km/h 14.0mph /  22.5km/h 10% 0.00in /  0mm 814.0 W/m2
09:48 82.0 °F /  27.8 °C 20.1 °F /  -6.6 °C 29.72in /  1006.3hPa ESE 10.1mph /  16.3km/h 12.0mph /  19.3km/h 10% 0.00in /  0mm 830.0 W/m2
09:53 82.2 °F /  27.9 °C 22.5 °F /  -5.3 °C 29.72in /  1006.3hPa NNE 6.0mph /  9.7km/h 15.0mph /  24.1km/h 11% 0.00in /  0mm 844.0 W/m2
09:59 82.8 °F /  28.2 °C 22.8 °F /  -5.1 °C 29.72in /  1006.3hPa ENE 6.0mph /  9.7km/h 14.0mph /  22.5km/h 11% 0.00in /  0mm 858.0 W/m2
10:04 83.1 °F /  28.4 °C 23.2 °F /  -4.9 °C 29.72in /  1006.3hPa NE 4.0mph /  6.4km/h 8.0mph /  12.9km/h 11% 0.00in /  0mm 870.0 W/m2
10:09 83.5 °F /  28.6 °C 23.4 °F /  -4.8 °C 29.72in /  1006.3hPa NNE 6.9mph /  11.1km/h 9.0mph /  14.5km/h 11% 0.00in /  0mm 886.0 W/m2
10:14 84.0 °F /  28.9 °C 23.9 °F /  -4.5 °C 29.72in /  1006.3hPa NE 6.0mph /  9.7km/h 11.0mph /  17.7km/h 11% 0.00in /  0mm 896.0 W/m2
10:19 84.2 °F /  29 °C 24.1 °F /  -4.4 °C 29.72in /  1006.3hPa ESE 2.9mph /  4.7km/h 8.0mph /  12.9km/h 11% 0.00in /  0mm 911.0 W/m2
10:24 84.6 °F /  29.2 °C 26.4 °F /  -3.1 °C 29.72in /  1006.3hPa SSW 2.9mph /  4.7km/h 9.0mph /  14.5km/h 12% 0.00in /  0mm 923.0 W/m2
10:30 84.9 °F /  29.4 °C 24.6 °F /  -4.1 °C 29.71in /  1006hPa ENE 8.9mph /  14.3km/h 9.0mph /  14.5km/h 11% 0.00in /  0mm 937.0 W/m2
10:35 85.5 °F /  29.7 °C 25.0 °F /  -3.9 °C 29.71in /  1006hPa East 2.0mph /  3.2km/h 5.0mph /  8km/h 11% 0.00in /  0mm 947.0 W/m2
10:40 85.8 °F /  29.9 °C 25.2 °F /  -3.8 °C 29.71in /  1006hPa Calm   5.0mph /  8km/h 11% 0.00in /  0mm 958.0 W/m2
10:45 86.5 °F /  30.3 °C 25.9 °F /  -3.4 °C 29.71in /  1006hPa Calm   4.0mph /  6.4km/h 11% 0.00in /  0mm 965.0 W/m2
10:51 87.1 °F /  30.6 °C 21.4 °F /  -5.9 °C 29.71in /  1006hPa NNW 0.9mph /  1.4km/h 8.0mph /  12.9km/h 9% 0.00in /  0mm 979.0 W/m2
10:56 87.4 °F /  30.8 °C 21.7 °F /  -5.7 °C 29.70in /  1005.6hPa WNW 0.9mph /  1.4km/h 5.0mph /  8km/h 9% 0.00in /  0mm 988.0 W/m2
11:02 88.0 °F /  31.1 °C 22.1 °F /  -5.5 °C 29.70in /  1005.6hPa NNE 4.0mph /  6.4km/h 6.0mph /  9.7km/h 9% 0.00in /  0mm 998.0 W/m2
11:07 88.5 °F /  31.4 °C 22.5 °F /  -5.3 °C 29.70in /  1005.6hPa NW 6.0mph /  9.7km/h 9.0mph /  14.5km/h 9% 0.00in /  0mm 1011.0 W/m2
11:12 89.1 °F /  31.7 °C 20.1 °F /  -6.6 °C 29.70in /  1005.6hPa NNW 8.1mph /  13km/h 9.0mph /  14.5km/h 8% 0.00in /  0mm 1018.0 W/m2
11:18 89.2 °F /  31.8 °C 20.3 °F /  -6.5 °C 29.70in /  1005.6hPa NNE 4.9mph /  7.9km/h 7.0mph /  11.3km/h 8% 0.00in /  0mm 1027.0 W/m2
11:23 89.4 °F /  31.9 °C 20.3 °F /  -6.5 °C 29.70in /  1005.6hPa ESE 0.9mph /  1.4km/h 4.0mph /  6.4km/h 8% 0.00in /  0mm 1032.0 W/m2
11:28 89.2 °F /  31.8 °C 20.3 °F /  -6.5 °C 29.70in /  1005.6hPa WSW 4.0mph /  6.4km/h 5.0mph /  8km/h 8% 0.00in /  0mm 1037.0 W/m2
11:33 88.5 °F /  31.4 °C 22.5 °F /  -5.3 °C 29.70in /  1005.6hPa Calm   3.0mph /  4.8km/h 9% 0.00in /  0mm 1042.0 W/m2
11:39 88.9 °F /  31.6 °C 19.9 °F /  -6.7 °C 29.69in /  1005.3hPa NNW 6.0mph /  9.7km/h 9.0mph /  14.5km/h 8% 0.00in /  0mm 1049.0 W/m2
11:44 89.8 °F /  32.1 °C 20.7 °F /  -6.3 °C 29.69in /  1005.3hPa Calm   4.0mph /  6.4km/h 8% 0.00in /  0mm 1051.0 W/m2
11:49 89.8 °F /  32.1 °C 20.7 °F /  -6.3 °C 29.69in /  1005.3hPa WSW 2.9mph /  4.7km/h 5.0mph /  8km/h 8% 0.00in /  0mm 1060.0 W/m2
11:54 89.8 °F /  32.1 °C 20.7 °F /  -6.3 °C 29.69in /  1005.3hPa Calm   2.0mph /  3.2km/h 8% 0.00in /  0mm 1058.0 W/m2
11:59 90.3 °F /  32.4 °C 21.0 °F /  -6.1 °C 29.69in /  1005.3hPa Calm   4.0mph /  6.4km/h 8% 0.00in /  0mm 1062.0 W/m2
12:04 90.9 °F /  32.7 °C 18.3 °F /  -7.6 °C 29.68in /  1005hPa Calm   8.0mph /  12.9km/h 7% 0.00in /  0mm 1065.0 W/m2
12:09 90.7 °F /  32.6 °C 18.1 °F /  -7.7 °C 29.68in /  1005hPa WSW 4.0mph /  6.4km/h 6.0mph /  9.7km/h 7% 0.00in /  0mm 1069.0 W/m2
12:14 90.5 °F /  32.5 °C 18.1 °F /  -7.7 °C 29.68in /  1005hPa NE 4.0mph /  6.4km/h 8.0mph /  12.9km/h 7% 0.00in /  0mm 1071.0 W/m2
12:19 90.7 °F /  32.6 °C 18.1 °F /  -7.7 °C 29.68in /  1005hPa WSW 2.0mph /  3.2km/h 4.0mph /  6.4km/h 7% 0.00in /  0mm 1072.0 W/m2
12:25 90.9 °F /  32.7 °C 21.4 °F /  -5.9 °C 29.68in /  1005hPa West 4.9mph /  7.9km/h 7.0mph /  11.3km/h 8% 0.00in /  0mm 1071.0 W/m2
12:30 90.5 °F /  32.5 °C 18.1 °F /  -7.7 °C 29.68in /  1005hPa NNW 2.9mph /  4.7km/h 3.0mph /  4.8km/h 7% 0.00in /  0mm 1072.0 W/m2
12:35 90.7 °F /  32.6 °C 18.1 °F /  -7.7 °C 29.68in /  1005hPa SSW 2.9mph /  4.7km/h 8.0mph /  12.9km/h 7% 0.00in /  0mm 1072.0 W/m2
12:40 91.2 °F /  32.9 °C 18.5 °F /  -7.5 °C 29.68in /  1005hPa NE 4.0mph /  6.4km/h 8.0mph /  12.9km/h 7% 0.00in /  0mm 1067.0 W/m2
12:45 91.2 °F /  32.9 °C 18.5 °F /  -7.5 °C 29.68in /  1005hPa WNW 2.0mph /  3.2km/h 2.0mph /  3.2km/h 7% 0.00in /  0mm 1065.0 W/m2
12:50 90.9 °F /  32.7 °C 18.3 °F /  -7.6 °C 29.67in /  1004.6hPa NNW 6.9mph /  11.1km/h 8.0mph /  12.9km/h 7% 0.00in /  0mm 1062.0 W/m2
12:55 91.0 °F /  32.8 °C 18.5 °F /  -7.5 °C 29.67in /  1004.6hPa WSW 0.9mph /  1.4km/h 4.0mph /  6.4km/h 7% 0.00in /  0mm 1056.0 W/m2
13:00 91.6 °F /  33.1 °C 18.9 °F /  -7.3 °C 29.67in /  1004.6hPa ENE 2.0mph /  3.2km/h 4.0mph /  6.4km/h 7% 0.00in /  0mm 1053.0 W/m2
13:05 92.1 °F /  33.4 °C 19.2 °F /  -7.1 °C 29.67in /  1004.6hPa Calm   6.0mph /  9.7km/h 7% 0.00in /  0mm 1056.0 W/m2
13:10 92.7 °F /  33.7 °C 19.6 °F /  -6.9 °C 29.66in /  1004.3hPa NNW 4.0mph /  6.4km/h 4.0mph /  6.4km/h 7% 0.00in /  0mm 1060.0 W/m2
13:16 92.8 °F /  33.8 °C 19.8 °F /  -6.8 °C 29.66in /  1004.3hPa NW 2.0mph /  3.2km/h 10.0mph /  16.1km/h 7% 0.00in /  0mm 1055.0 W/m2
13:21 92.8 °F /  33.8 °C 19.8 °F /  -6.8 °C 29.66in /  1004.3hPa West 0.9mph /  1.4km/h 2.0mph /  3.2km/h 7% 0.00in /  0mm 1049.0 W/m2
13:26 92.8 °F /  33.8 °C 19.8 °F /  -6.8 °C 29.66in /  1004.3hPa West 4.9mph /  7.9km/h 9.0mph /  14.5km/h 7% 0.00in /  0mm 1042.0 W/m2
13:31 92.7 °F /  33.7 °C 19.6 °F /  -6.9 °C 29.66in /  1004.3hPa WNW 4.0mph /  6.4km/h 9.0mph /  14.5km/h 7% 0.00in /  0mm 1039.0 W/m2
13:36 92.1 °F /  33.4 °C 19.2 °F /  -7.1 °C 29.66in /  1004.3hPa WSW 6.9mph /  11.1km/h 8.0mph /  12.9km/h 7% 0.00in /  0mm 1035.0 W/m2
13:41 91.4 °F /  33 °C 18.7 °F /  -7.4 °C 29.65in /  1003.9hPa West 2.9mph /  4.7km/h 9.0mph /  14.5km/h 7% 0.00in /  0mm 1030.0 W/m2
13:46 91.0 °F /  32.8 °C 18.5 °F /  -7.5 °C 29.65in /  1003.9hPa SW 4.9mph /  7.9km/h 9.0mph /  14.5km/h 7% 0.00in /  0mm 1023.0 W/m2
13:51 91.4 °F /  33 °C 18.7 °F /  -7.4 °C 29.65in /  1003.9hPa South 4.9mph /  7.9km/h 8.0mph /  12.9km/h 7% 0.00in /  0mm 1011.0 W/m2
13:56 91.6 °F /  33.1 °C 18.9 °F /  -7.3 °C 29.65in /  1003.9hPa SW 2.0mph /  3.2km/h 11.0mph /  17.7km/h 7% 0.00in /  0mm 1004.0 W/m2
14:02 91.8 °F /  33.2 °C 19.0 °F /  -7.2 °C 29.65in /  1003.9hPa NNW 2.0mph /  3.2km/h 7.0mph /  11.3km/h 7% 0.00in /  0mm 995.0 W/m2
14:07 92.3 °F /  33.5 °C 19.4 °F /  -7 °C 29.65in /  1003.9hPa North 2.9mph /  4.7km/h 6.0mph /  9.7km/h 7% 0.00in /  0mm 988.0 W/m2
14:12 93.0 °F /  33.9 °C 19.9 °F /  -6.7 °C 29.65in /  1003.9hPa NNW 2.0mph /  3.2km/h 6.0mph /  9.7km/h 7% 0.00in /  0mm 981.0 W/m2
14:17 93.6 °F /  34.2 °C 20.3 °F /  -6.5 °C 29.64in /  1003.6hPa WNW 6.9mph /  11.1km/h 7.0mph /  11.3km/h 7% 0.00in /  0mm 974.0 W/m2
14:22 94.1 °F /  34.5 °C 20.7 °F /  -6.3 °C 29.64in /  1003.6hPa West 6.0mph /  9.7km/h 11.0mph /  17.7km/h 7% 0.00in /  0mm 963.0 W/m2
14:27 94.3 °F /  34.6 °C 20.8 °F /  -6.2 °C 29.64in /  1003.6hPa Calm   2.0mph /  3.2km/h 7% 0.00in /  0mm 951.0 W/m2
14:32 94.3 °F /  34.6 °C 17.2 °F /  -8.2 °C 29.64in /  1003.6hPa NNE 4.0mph /  6.4km/h 9.0mph /  14.5km/h 6% 0.00in /  0mm 942.0 W/m2
14:37 94.3 °F /  34.6 °C 20.8 °F /  -6.2 °C 29.63in /  1003.3hPa West 0.9mph /  1.4km/h 5.0mph /  8km/h 7% 0.00in /  0mm 928.0 W/m2
14:42 94.8 °F /  34.9 °C 21.2 °F /  -6 °C 29.63in /  1003.3hPa NNW 4.0mph /  6.4km/h 9.0mph /  14.5km/h 7% 0.00in /  0mm 916.0 W/m2
14:48 95.4 °F /  35.2 °C 21.6 °F /  -5.8 °C 29.63in /  1003.3hPa Calm   7.0mph /  11.3km/h 7% 0.00in /  0mm 907.0 W/m2
14:53 95.4 °F /  35.2 °C 21.6 °F /  -5.8 °C 29.63in /  1003.3hPa SW 6.0mph /  9.7km/h 7.0mph /  11.3km/h 7% 0.00in /  0mm 895.0 W/m2
14:58 94.8 °F /  34.9 °C 21.2 °F /  -6 °C 29.62in /  1002.9hPa SE 2.9mph /  4.7km/h 3.0mph /  4.8km/h 7% 0.00in /  0mm 886.0 W/m2
15:03 95.0 °F /  35 °C 21.4 °F /  -5.9 °C 29.62in /  1002.9hPa East 2.0mph /  3.2km/h 8.0mph /  12.9km/h 7% 0.00in /  0mm 872.0 W/m2
15:08 95.2 °F /  35.1 °C 17.8 °F /  -7.9 °C 29.62in /  1002.9hPa Calm   7.0mph /  11.3km/h 6% 0.00in /  0mm 856.0 W/m2
15:13 94.8 °F /  34.9 °C 17.6 °F /  -8 °C 29.62in /  1002.9hPa East 4.9mph /  7.9km/h 8.0mph /  12.9km/h 6% 0.00in /  0mm 844.0 W/m2
15:18 94.8 °F /  34.9 °C 21.2 °F /  -6 °C 29.62in /  1002.9hPa ESE 4.9mph /  7.9km/h 11.0mph /  17.7km/h 7% 0.00in /  0mm 826.0 W/m2
15:24 94.6 °F /  34.8 °C 17.4 °F /  -8.1 °C 29.61in /  1002.6hPa ESE 4.9mph /  7.9km/h 7.0mph /  11.3km/h 6% 0.00in /  0mm 810.0 W/m2
15:30 94.5 °F /  34.7 °C 21.0 °F /  -6.1 °C 29.61in /  1002.6hPa Calm   5.0mph /  8km/h 7% 0.00in /  0mm 796.0 W/m2
15:35 94.5 °F /  34.7 °C 17.4 °F /  -8.1 °C 29.61in /  1002.6hPa SSE 2.0mph /  3.2km/h 6.0mph /  9.7km/h 6% 0.00in /  0mm 777.0 W/m2
15:40 94.5 °F /  34.7 °C 21.0 °F /  -6.1 °C 29.61in /  1002.6hPa Calm   8.0mph /  12.9km/h 7% 0.00in /  0mm 763.0 W/m2
15:45 94.6 °F /  34.8 °C 21.0 °F /  -6.1 °C 29.61in /  1002.6hPa WSW 0.9mph /  1.4km/h 2.0mph /  3.2km/h 7% 0.00in /  0mm 751.0 W/m2
15:50 95.4 °F /  35.2 °C 18.0 °F /  -7.8 °C 29.60in /  1002.3hPa SSW 2.9mph /  4.7km/h 8.0mph /  12.9km/h 6% 0.00in /  0mm 735.0 W/m2
15:55 95.4 °F /  35.2 °C 18.0 °F /  -7.8 °C 29.60in /  1002.3hPa North 2.0mph /  3.2km/h 8.0mph /  12.9km/h 6% 0.00in /  0mm 717.0 W/m2
16:00 95.9 °F /  35.5 °C 18.3 °F /  -7.6 °C 29.60in /  1002.3hPa Calm   2.0mph /  3.2km/h 6% 0.00in /  0mm 703.0 W/m2
16:05 96.6 °F /  35.9 °C 18.9 °F /  -7.3 °C 29.60in /  1002.3hPa NNW 4.9mph /  7.9km/h 8.0mph /  12.9km/h 6% 0.00in /  0mm 689.0 W/m2
16:10 96.6 °F /  35.9 °C 18.9 °F /  -7.3 °C 29.60in /  1002.3hPa ENE 0.9mph /  1.4km/h 3.0mph /  4.8km/h 6% 0.00in /  0mm 677.0 W/m2
16:16 96.6 °F /  35.9 °C 18.9 °F /  -7.3 °C 29.59in /  1001.9hPa West 0.9mph /  1.4km/h 4.0mph /  6.4km/h 6% 0.00in /  0mm 659.0 W/m2
16:21 96.8 °F /  36 °C 19.0 °F /  -7.2 °C 29.59in /  1001.9hPa West 0.9mph /  1.4km/h 5.0mph /  8km/h 6% 0.00in /  0mm 638.0 W/m2
16:26 96.8 °F /  36 °C 19.0 °F /  -7.2 °C 29.59in /  1001.9hPa WSW 2.9mph /  4.7km/h 6.0mph /  9.7km/h 6% 0.00in /  0mm 621.0 W/m2
16:31 96.4 °F /  35.8 °C 18.7 °F /  -7.4 °C 29.59in /  1001.9hPa Calm   4.0mph /  6.4km/h 6% 0.00in /  0mm 599.0 W/m2
16:36 96.4 °F /  35.8 °C 18.7 °F /  -7.4 °C 29.59in /  1001.9hPa Calm   4.0mph /  6.4km/h 6% 0.00in /  0mm 584.0 W/m2
16:41 96.6 °F /  35.9 °C 18.9 °F /  -7.3 °C 29.59in /  1001.9hPa NW 0.9mph /  1.4km/h 2.0mph /  3.2km/h 6% 0.00in /  0mm 566.0 W/m2
16:46 97.2 °F /  36.2 °C 19.2 °F /  -7.1 °C 29.59in /  1001.9hPa Calm   5.0mph /  8km/h 6% 0.00in /  0mm 548.0 W/m2
16:52 97.5 °F /  36.4 °C 15.3 °F /  -9.3 °C 29.59in /  1001.9hPa West 0.9mph /  1.4km/h 3.0mph /  4.8km/h 5% 0.00in /  0mm 531.0 W/m2
16:57 97.7 °F /  36.5 °C 15.4 °F /  -9.2 °C 29.59in /  1001.9hPa Calm   2.0mph /  3.2km/h 5% 0.00in /  0mm 512.0 W/m2
17:02 97.3 °F /  36.3 °C 15.1 °F /  -9.4 °C 29.59in /  1001.9hPa NW 4.0mph /  6.4km/h 4.0mph /  6.4km/h 5% 0.00in /  0mm 490.0 W/m2
17:07 97.2 °F /  36.2 °C 15.1 °F /  -9.4 °C 29.59in /  1001.9hPa SSW 4.0mph /  6.4km/h 5.0mph /  8km/h 5% 0.00in /  0mm 468.0 W/m2
17:12 97.2 °F /  36.2 °C 15.1 °F /  -9.4 °C 29.58in /  1001.6hPa ENE 4.9mph /  7.9km/h 12.0mph /  19.3km/h 5% 0.00in /  0mm 446.0 W/m2
17:17 96.4 °F /  35.8 °C 18.7 °F /  -7.4 °C 29.59in /  1001.9hPa NNW 2.0mph /  3.2km/h 9.0mph /  14.5km/h 6% 0.00in /  0mm 427.0 W/m2
17:22 96.1 °F /  35.6 °C 18.5 °F /  -7.5 °C 29.58in /  1001.6hPa North 4.0mph /  6.4km/h 6.0mph /  9.7km/h 6% 0.00in /  0mm 415.0 W/m2
17:27 95.7 °F /  35.4 °C 18.3 °F /  -7.6 °C 29.58in /  1001.6hPa Calm   3.0mph /  4.8km/h 6% 0.00in /  0mm 392.0 W/m2
17:32 95.4 °F /  35.2 °C 18.0 °F /  -7.8 °C 29.58in /  1001.6hPa NNE 0.9mph /  1.4km/h 5.0mph /  8km/h 6% 0.00in /  0mm 367.0 W/m2
17:37 95.7 °F /  35.4 °C 18.3 °F /  -7.6 °C 29.59in /  1001.9hPa WNW 0.9mph /  1.4km/h 3.0mph /  4.8km/h 6% 0.00in /  0mm 355.0 W/m2
17:42 96.1 °F /  35.6 °C 18.5 °F /  -7.5 °C 29.59in /  1001.9hPa WSW 4.0mph /  6.4km/h 5.0mph /  8km/h 6% 0.00in /  0mm 47.0 W/m2
17:48 94.8 °F /  34.9 °C 17.6 °F /  -8 °C 29.59in /  1001.9hPa WSW 2.9mph /  4.7km/h 4.0mph /  6.4km/h 6% 0.00in /  0mm 51.0 W/m2
17:53 93.7 °F /  34.3 °C 16.9 °F /  -8.4 °C 29.59in /  1001.9hPa Calm   2.0mph /  3.2km/h 6% 0.00in /  0mm 294.0 W/m2
17:58 93.4 °F /  34.1 °C 16.5 °F /  -8.6 °C 29.59in /  1001.9hPa Calm   2.0mph /  3.2km/h 6% 0.00in /  0mm 185.0 W/m2
18:04 93.4 °F /  34.1 °C 16.5 °F /  -8.6 °C 29.59in /  1001.9hPa WSW 0.9mph /  1.4km/h 3.0mph /  4.8km/h 6% 0.00in /  0mm 95.0 W/m2
18:09 93.2 °F /  34 °C 16.5 °F /  -8.6 °C 29.59in /  1001.9hPa NW 2.0mph /  3.2km/h 4.0mph /  6.4km/h 6% 0.00in /  0mm 91.0 W/m2
18:14 92.7 °F /  33.7 °C 16.0 °F /  -8.9 °C 29.59in /  1001.9hPa Calm   3.0mph /  4.8km/h 6% 0.00in /  0mm 98.0 W/m2
18:19 92.5 °F /  33.6 °C 19.6 °F /  -6.9 °C 29.59in /  1001.9hPa Calm   3.0mph /  4.8km/h 7% 0.00in /  0mm 225.0 W/m2
18:24 92.1 °F /  33.4 °C 19.2 °F /  -7.1 °C 29.59in /  1001.9hPa WSW 0.9mph /  1.4km/h 2.0mph /  3.2km/h 7% 0.00in /  0mm 142.0 W/m2
18:29 91.9 °F /  33.3 °C 25.0 °F /  -3.9 °C 29.60in /  1002.3hPa West 8.1mph /  13km/h 8.1mph /  13km/h 9% 0.00in /  0mm 109.0 W/m2
18:34 91.0 °F /  32.8 °C 27.0 °F /  -2.8 °C 29.61in /  1002.6hPa SW 8.1mph /  13km/h 17.0mph /  27.4km/h 10% 0.00in /  0mm 95.0 W/m2
18:39 89.1 °F /  31.7 °C 27.7 °F /  -2.4 °C 29.61in /  1002.6hPa WNW 4.9mph /  7.9km/h 14.0mph /  22.5km/h 11% 0.00in /  0mm 84.0 W/m2
18:45 87.3 °F /  30.7 °C 28.4 °F /  -2 °C 29.61in /  1002.6hPa WSW 10.1mph /  16.3km/h 10.1mph /  16.3km/h 12% 0.00in /  0mm 65.0 W/m2
18:50 86.2 °F /  30.1 °C 27.7 °F /  -2.4 °C 29.61in /  1002.6hPa WSW 11.0mph /  17.7km/h 13.0mph /  20.9km/h 12% 0.00in /  0mm 54.0 W/m2
18:55 85.5 °F /  29.7 °C 28.9 °F /  -1.7 °C 29.62in /  1002.9hPa SW 8.9mph /  14.3km/h 13.0mph /  20.9km/h 13% 0.00in /  0mm 47.0 W/m2
19:01 84.9 °F /  29.4 °C 28.6 °F /  -1.9 °C 29.62in /  1002.9hPa West 6.0mph /  9.7km/h 11.0mph /  17.7km/h 13% 0.00in /  0mm 39.0 W/m2
19:06 84.6 °F /  29.2 °C 28.4 °F /  -2 °C 29.62in /  1002.9hPa SW 6.0mph /  9.7km/h 9.0mph /  14.5km/h 13% 0.00in /  0mm 32.0 W/m2
19:11 84.4 °F /  29.1 °C 28.2 °F /  -2.1 °C 29.63in /  1003.3hPa SSW 4.0mph /  6.4km/h 13.0mph /  20.9km/h 13% 0.00in /  0mm 26.0 W/m2
19:17 83.8 °F /  28.8 °C 27.7 °F /  -2.4 °C 29.63in /  1003.3hPa WSW 2.9mph /  4.7km/h 10.0mph /  16.1km/h 13% 0.00in /  0mm 16.0 W/m2
19:22 83.8 °F /  28.8 °C 27.7 °F /  -2.4 °C 29.63in /  1003.3hPa Calm   3.0mph /  4.8km/h 13% 0.00in /  0mm 5.0 W/m2
19:27 83.7 °F /  28.7 °C 27.7 °F /  -2.4 °C 29.64in /  1003.6hPa WSW 4.9mph /  7.9km/h 9.0mph /  14.5km/h 13% 0.00in /  0mm 0.0 W/m2
19:32 83.1 °F /  28.4 °C 27.1 °F /  -2.7 °C 29.65in /  1003.9hPa WSW 4.9mph /  7.9km/h 10.0mph /  16.1km/h 13% 0.00in /  0mm 0.0 W/m2
19:37 82.8 °F /  28.2 °C 27.0 °F /  -2.8 °C 29.65in /  1003.9hPa Calm   7.0mph /  11.3km/h 13% 0.00in /  0mm 0.0 W/m2
19:43 82.4 °F /  28 °C 26.6 °F /  -3 °C 29.66in /  1004.3hPa SSW 6.0mph /  9.7km/h 11.0mph /  17.7km/h 13% 0.00in /  0mm 0.0 W/m2
19:48 82.0 °F /  27.8 °C 26.4 °F /  -3.1 °C 29.66in /  1004.3hPa SSW 2.9mph /  4.7km/h 6.0mph /  9.7km/h 13% 0.00in /  0mm 0.0 W/m2
19:53 81.9 °F /  27.7 °C 26.2 °F /  -3.2 °C 29.67in /  1004.6hPa South 0.9mph /  1.4km/h 13.0mph /  20.9km/h 13% 0.00in /  0mm 0.0 W/m2
19:59 81.3 °F /  27.4 °C 27.5 °F /  -2.5 °C 29.67in /  1004.6hPa WSW 4.9mph /  7.9km/h 7.0mph /  11.3km/h 14% 0.00in /  0mm 0.0 W/m2
20:04 81.1 °F /  27.3 °C 27.5 °F /  -2.5 °C 29.67in /  1004.6hPa SW 6.0mph /  9.7km/h 8.0mph /  12.9km/h 14% 0.00in /  0mm 0.0 W/m2
20:09 80.8 °F /  27.1 °C 28.8 °F /  -1.8 °C 29.67in /  1004.6hPa Calm   5.0mph /  8km/h 15% 0.00in /  0mm 0.0 W/m2
20:15 80.8 °F /  27.1 °C 28.8 °F /  -1.8 °C 29.67in /  1004.6hPa Calm   4.0mph /  6.4km/h 15% 0.00in /  0mm 0.0 W/m2
20:20 80.4 °F /  26.9 °C 28.6 °F /  -1.9 °C 29.67in /  1004.6hPa SW 0.9mph /  1.4km/h 3.0mph /  4.8km/h 15% 0.00in /  0mm 0.0 W/m2
20:25 80.2 °F /  26.8 °C 28.4 °F /  -2 °C 29.68in /  1005hPa SSW 2.0mph /  3.2km/h 4.0mph /  6.4km/h 15% 0.00in /  0mm 0.0 W/m2
20:31 80.1 °F /  26.7 °C 28.2 °F /  -2.1 °C 29.68in /  1005hPa Calm     15% 0.00in /  0mm 0.0 W/m2
20:36 79.9 °F /  26.6 °C 28.0 °F /  -2.2 °C 29.68in /  1005hPa SSW 0.9mph /  1.4km/h 4.0mph /  6.4km/h 15% 0.00in /  0mm 0.0 W/m2
20:41 79.5 °F /  26.4 °C 29.5 °F /  -1.4 °C 29.68in /  1005hPa WSW 8.1mph /  13km/h 8.1mph /  13km/h 16% 0.00in /  0mm 0.0 W/m2
20:46 79.3 °F /  26.3 °C 27.7 °F /  -2.4 °C 29.68in /  1005hPa Calm   1.0mph /  1.6km/h 15% 0.00in /  0mm 0.0 W/m2
20:51 79.3 °F /  26.3 °C 29.3 °F /  -1.5 °C 29.68in /  1005hPa Calm   2.0mph /  3.2km/h 16% 0.00in /  0mm 0.0 W/m2
20:57 79.2 °F /  26.2 °C 27.5 °F /  -2.5 °C 29.68in /  1005hPa SW 0.9mph /  1.4km/h 3.0mph /  4.8km/h 15% 0.00in /  0mm 0.0 W/m2
21:02 79.2 °F /  26.2 °C 27.5 °F /  -2.5 °C 29.69in /  1005.3hPa Calm   1.0mph /  1.6km/h 15% 0.00in /  0mm 0.0 W/m2
21:07 79.0 °F /  26.1 °C 28.9 °F /  -1.7 °C 29.69in /  1005.3hPa Calm     16% 0.00in /  0mm 0.0 W/m2
21:13 78.6 °F /  25.9 °C 28.8 °F /  -1.8 °C 29.69in /  1005.3hPa Calm   1.0mph /  1.6km/h 16% 0.00in /  0mm 0.0 W/m2
21:18 78.4 °F /  25.8 °C 30.0 °F /  -1.1 °C 29.69in /  1005.3hPa Calm     17% 0.00in /  0mm 0.0 W/m2
21:23 78.1 °F /  25.6 °C 29.7 °F /  -1.3 °C 29.70in /  1005.6hPa Calm     17% 0.00in /  0mm 0.0 W/m2
21:29 77.7 °F /  25.4 °C 30.9 °F /  -0.6 °C 29.70in /  1005.6hPa Calm   1.0mph /  1.6km/h 18% 0.00in /  0mm 0.0 W/m2
21:34 77.4 °F /  25.2 °C 30.6 °F /  -0.8 °C 29.70in /  1005.6hPa Calm   1.0mph /  1.6km/h 18% 0.00in /  0mm 0.0 W/m2
21:40 77.2 °F /  25.1 °C 31.8 °F /  -0.1 °C 29.70in /  1005.6hPa Calm     19% 0.00in /  0mm 0.0 W/m2
21:46 76.8 °F /  24.9 °C 31.5 °F /  -0.3 °C 29.70in /  1005.6hPa Calm     19% 0.00in /  0mm 0.0 W/m2
21:51 76.5 °F /  24.7 °C 31.1 °F /  -0.5 °C 29.70in /  1005.6hPa Calm   1.0mph /  1.6km/h 19% 0.00in /  0mm 0.0 W/m2
21:56 76.3 °F /  24.6 °C 32.2 °F /  0.1 °C 29.70in /  1005.6hPa WSW 2.0mph /  3.2km/h 3.0mph /  4.8km/h 20% 0.00in /  0mm 0.0 W/m2
22:02 75.9 °F /  24.4 °C 32.0 °F /  0 °C 29.71in /  1006hPa Calm   5.0mph /  8km/h 20% 0.00in /  0mm 0.0 W/m2
22:07 75.7 °F /  24.3 °C 33.1 °F /  0.6 °C 29.71in /  1006hPa Calm   2.0mph /  3.2km/h 21% 0.00in /  0mm 0.0 W/m2
22:12 75.4 °F /  24.1 °C 32.7 °F /  0.4 °C 29.71in /  1006hPa SW 2.0mph /  3.2km/h 4.0mph /  6.4km/h 21% 0.00in /  0mm 0.0 W/m2
22:17 75.2 °F /  24 °C 33.8 °F /  1 °C 29.71in /  1006hPa Calm   3.0mph /  4.8km/h 22% 0.00in /  0mm 0.0 W/m2
22:22 74.8 °F /  23.8 °C 33.4 °F /  0.8 °C 29.71in /  1006hPa Calm   1.0mph /  1.6km/h 22% 0.00in /  0mm 0.0 W/m2
22:28 74.7 °F /  23.7 °C 33.3 °F /  0.7 °C 29.71in /  1006hPa Calm   1.0mph /  1.6km/h 22% 0.00in /  0mm 0.0 W/m2
22:33 74.5 °F /  23.6 °C 34.3 °F /  1.3 °C 29.71in /  1006hPa Calm     23% 0.00in /  0mm 0.0 W/m2
22:38 74.1 °F /  23.4 °C 34.0 °F /  1.1 °C 29.71in /  1006hPa Calm     23% 0.00in /  0mm 0.0 W/m2
22:44 73.8 °F /  23.2 °C 33.6 °F /  0.9 °C 29.72in /  1006.3hPa Calm   1.0mph /  1.6km/h 23% 0.00in /  0mm 0.0 W/m2
22:49 73.6 °F /  23.1 °C 33.4 °F /  0.8 °C 29.72in /  1006.3hPa Calm     23% 0.00in /  0mm 0.0 W/m2
22:54 73.4 °F /  23 °C 34.3 °F /  1.3 °C 29.72in /  1006.3hPa Calm   1.0mph /  1.6km/h 24% 0.00in /  0mm 0.0 W/m2
22:59 73.0 °F /  22.8 °C 33.1 °F /  0.6 °C 29.72in /  1006.3hPa Calm   1.0mph /  1.6km/h 23% 0.00in /  0mm 0.0 W/m2
23:04 72.9 °F /  22.7 °C 32.9 °F /  0.5 °C 29.72in /  1006.3hPa Calm   1.0mph /  1.6km/h 23% 0.00in /  0mm 0.0 W/m2
23:10 72.9 °F /  22.7 °C 34.0 °F /  1.1 °C 29.72in /  1006.3hPa Calm     24% 0.00in /  0mm 0.0 W/m2
23:15 72.7 °F /  22.6 °C 33.8 °F /  1 °C 29.72in /  1006.3hPa NW 0.9mph /  1.4km/h 1.0mph /  1.6km/h 24% 0.00in /  0mm 0.0 W/m2
23:20 72.3 °F /  22.4 °C 31.3 °F /  -0.4 °C 29.72in /  1006.3hPa Calm     22% 0.00in /  0mm 0.0 W/m2
23:25 72.3 °F /  22.4 °C 31.3 °F /  -0.4 °C 29.72in /  1006.3hPa Calm   1.0mph /  1.6km/h 22% 0.00in /  0mm 0.0 W/m2
23:30 72.1 °F /  22.3 °C 31.1 °F /  -0.5 °C 29.72in /  1006.3hPa Calm     22% 0.00in /  0mm 0.0 W/m2
23:35 72.1 °F /  22.3 °C 31.1 °F /  -0.5 °C 29.72in /  1006.3hPa Calm     22% 0.00in /  0mm 0.0 W/m2
23:40 72.0 °F /  22.2 °C 33.3 °F /  0.7 °C 29.72in /  1006.3hPa Calm     24% 0.00in /  0mm 0.0 W/m2
23:45 72.0 °F /  22.2 °C 33.3 °F /  0.7 °C 29.72in /  1006.3hPa Calm     24% 0.00in /  0mm 0.0 W/m2
23:51 71.8 °F /  22.1 °C 33.1 °F /  0.6 °C 29.72in /  1006.3hPa Calm   1.0mph /  1.6km/h 24% 0.00in /  0mm 0.0 W/m2
23:56 71.6 °F /  22 °C 31.8 °F /  -0.1 °C 29.72in /  1006.3hPa Calm     23% 0.00in /  0mm 0.0 W/m2
Olympia, Windhoek, Namibia
Compliments of Weather Underground - 3.25 mb